sensor_id;sensor_type;location;lat;lon;timestamp;temperature;humidity
19829;DHT22;10075;50.924;4.396;2023-07-13T00:01:04;17.90;99.90
19829;DHT22;10075;50.924;4.396;2023-07-13T00:03:32;17.80;99.90
19829;DHT22;10075;50.924;4.396;2023-07-13T00:06:02;17.80;99.90
19829;DHT22;10075;50.924;4.396;2023-07-13T00:08:31;17.90;99.90
19829;DHT22;10075;50.924;4.396;2023-07-13T00:10:59;17.80;99.90
19829;DHT22;10075;50.924;4.396;2023-07-13T00:13:26;17.80;99.90
19829;DHT22;10075;50.924;4.396;2023-07-13T00:15:53;17.80;99.90
19829;DHT22;10075;50.924;4.396;2023-07-13T00:18:21;17.80;99.90
19829;DHT22;10075;50.924;4.396;2023-07-13T00:20:48;17.80;99.90
19829;DHT22;10075;50.924;4.396;2023-07-13T00:23:17;17.80;99.90
19829;DHT22;10075;50.924;4.396;2023-07-13T00:25:44;17.80;99.90
19829;DHT22;10075;50.924;4.396;2023-07-13T00:28:11;17.70;99.90
19829;DHT22;10075;50.924;4.396;2023-07-13T00:30:38;17.70;99.90
19829;DHT22;10075;50.924;4.396;2023-07-13T00:33:05;17.70;99.90
19829;DHT22;10075;50.924;4.396;2023-07-13T00:35:33;17.60;99.90
19829;DHT22;10075;50.924;4.396;2023-07-13T00:38:00;17.60;99.90
19829;DHT22;10075;50.924;4.396;2023-07-13T00:40:29;17.60;99.90
19829;DHT22;10075;50.924;4.396;2023-07-13T00:42:58;17.50;99.90
19829;DHT22;10075;50.924;4.396;2023-07-13T00:48:45;17.50;99.90
19829;DHT22;10075;50.924;4.396;2023-07-13T00:51:14;17.40;99.90
19829;DHT22;10075;50.924;4.396;2023-07-13T00:53:42;17.40;99.90
19829;DHT22;10075;50.924;4.396;2023-07-13T00:56:10;17.40;99.90
19829;DHT22;10075;50.924;4.396;2023-07-13T00:58:38;17.40;99.90
19829;DHT22;10075;50.924;4.396;2023-07-13T01:01:05;17.40;99.90
19829;DHT22;10075;50.924;4.396;2023-07-13T01:03:32;17.40;99.90
19829;DHT22;10075;50.924;4.396;2023-07-13T01:06:00;17.40;99.90
19829;DHT22;10075;50.924;4.396;2023-07-13T01:08:27;17.30;99.90
19829;DHT22;10075;50.924;4.396;2023-07-13T01:10:55;17.30;99.90
19829;DHT22;10075;50.924;4.396;2023-07-13T01:13:25;17.30;99.90
19829;DHT22;10075;50.924;4.396;2023-07-13T01:15:53;17.30;99.90
19829;DHT22;10075;50.924;4.396;2023-07-13T01:18:23;17.30;99.90
19829;DHT22;10075;50.924;4.396;2023-07-13T01:20:54;17.20;99.90
19829;DHT22;10075;50.924;4.396;2023-07-13T01:23:22;17.20;99.90
19829;DHT22;10075;50.924;4.396;2023-07-13T01:25:50;17.20;99.90
19829;DHT22;10075;50.924;4.396;2023-07-13T01:28:17;17.20;99.90
19829;DHT22;10075;50.924;4.396;2023-07-13T01:30:46;17.10;99.90
19829;DHT22;10075;50.924;4.396;2023-07-13T01:33:14;17.10;99.90
19829;DHT22;10075;50.924;4.396;2023-07-13T01:35:42;17.10;99.90
19829;DHT22;10075;50.924;4.396;2023-07-13T01:38:11;17.10;99.90
19829;DHT22;10075;50.924;4.396;2023-07-13T01:40:38;17.10;99.90
19829;DHT22;10075;50.924;4.396;2023-07-13T01:43:06;17.00;99.90
19829;DHT22;10075;50.924;4.396;2023-07-13T01:45:33;17.00;99.90
19829;DHT22;10075;50.924;4.396;2023-07-13T01:48:00;16.90;99.90
19829;DHT22;10075;50.924;4.396;2023-07-13T01:50:27;16.90;99.90
19829;DHT22;10075;50.924;4.396;2023-07-13T01:52:54;16.90;99.90
19829;DHT22;10075;50.924;4.396;2023-07-13T01:55:22;16.90;99.90
19829;DHT22;10075;50.924;4.396;2023-07-13T01:57:49;16.90;99.90
19829;DHT22;10075;50.924;4.396;2023-07-13T02:00:17;16.90;99.90
19829;DHT22;10075;50.924;4.396;2023-07-13T02:02:44;16.90;99.90
19829;DHT22;10075;50.924;4.396;2023-07-13T02:05:12;16.90;99.90
19829;DHT22;10075;50.924;4.396;2023-07-13T02:07:39;16.90;99.90
19829;DHT22;10075;50.924;4.396;2023-07-13T02:10:07;16.80;99.90
19829;DHT22;10075;50.924;4.396;2023-07-13T02:12:36;16.80;99.90
19829;DHT22;10075;50.924;4.396;2023-07-13T02:15:04;16.80;99.90
19829;DHT22;10075;50.924;4.396;2023-07-13T02:17:32;16.80;99.90
19829;DHT22;10075;50.924;4.396;2023-07-13T02:19:59;16.80;99.90
19829;DHT22;10075;50.924;4.396;2023-07-13T02:22:25;16.80;99.90
19829;DHT22;10075;50.924;4.396;2023-07-13T02:24:53;16.80;99.90
19829;DHT22;10075;50.924;4.396;2023-07-13T02:27:20;16.80;99.90
19829;DHT22;10075;50.924;4.396;2023-07-13T02:29:48;16.80;99.90
19829;DHT22;10075;50.924;4.396;2023-07-13T02:32:16;16.80;99.90
19829;DHT22;10075;50.924;4.396;2023-07-13T02:34:44;16.80;99.90
19829;DHT22;10075;50.924;4.396;2023-07-13T02:37:11;16.70;99.90
19829;DHT22;10075;50.924;4.396;2023-07-13T02:39:38;16.70;99.90
19829;DHT22;10075;50.924;4.396;2023-07-13T02:42:06;16.60;99.90
19829;DHT22;10075;50.924;4.396;2023-07-13T02:44:33;16.60;99.90
19829;DHT22;10075;50.924;4.396;2023-07-13T02:47:01;16.60;99.90
19829;DHT22;10075;50.924;4.396;2023-07-13T02:49:28;16.50;99.90
19829;DHT22;10075;50.924;4.396;2023-07-13T02:51:55;16.50;99.90
19829;DHT22;10075;50.924;4.396;2023-07-13T02:54:22;16.50;99.90
19829;DHT22;10075;50.924;4.396;2023-07-13T02:56:49;16.60;99.90
19829;DHT22;10075;50.924;4.396;2023-07-13T02:59:16;16.50;99.90
19829;DHT22;10075;50.924;4.396;2023-07-13T03:01:43;16.50;99.90
19829;DHT22;10075;50.924;4.396;2023-07-13T03:04:11;16.50;99.90
19829;DHT22;10075;50.924;4.396;2023-07-13T03:06:38;16.50;99.90
19829;DHT22;10075;50.924;4.396;2023-07-13T03:09:05;16.40;99.90
19829;DHT22;10075;50.924;4.396;2023-07-13T03:11:33;16.40;99.90
19829;DHT22;10075;50.924;4.396;2023-07-13T03:14:00;16.40;99.90
19829;DHT22;10075;50.924;4.396;2023-07-13T03:16:27;16.40;99.90
19829;DHT22;10075;50.924;4.396;2023-07-13T03:18:54;16.40;99.90
19829;DHT22;10075;50.924;4.396;2023-07-13T03:21:22;16.40;99.90
19829;DHT22;10075;50.924;4.396;2023-07-13T03:23:49;16.40;99.90
19829;DHT22;10075;50.924;4.396;2023-07-13T03:26:19;16.40;99.90
19829;DHT22;10075;50.924;4.396;2023-07-13T03:28:46;16.40;99.90
19829;DHT22;10075;50.924;4.396;2023-07-13T03:31:15;16.40;99.90
19829;DHT22;10075;50.924;4.396;2023-07-13T03:33:42;16.40;99.90
19829;DHT22;10075;50.924;4.396;2023-07-13T03:36:13;16.40;99.90
19829;DHT22;10075;50.924;4.396;2023-07-13T03:38:43;16.40;99.90
19829;DHT22;10075;50.924;4.396;2023-07-13T03:41:10;16.40;99.90
19829;DHT22;10075;50.924;4.396;2023-07-13T03:43:37;16.40;99.90
19829;DHT22;10075;50.924;4.396;2023-07-13T03:46:03;16.50;99.90
19829;DHT22;10075;50.924;4.396;2023-07-13T03:48:30;16.50;99.90
19829;DHT22;10075;50.924;4.396;2023-07-13T03:50:57;16.50;99.90
19829;DHT22;10075;50.924;4.396;2023-07-13T03:53:24;16.50;99.90
19829;DHT22;10075;50.924;4.396;2023-07-13T03:55:52;16.50;99.90
19829;DHT22;10075;50.924;4.396;2023-07-13T03:58:30;16.60;99.90
19829;DHT22;10075;50.924;4.396;2023-07-13T04:00:58;16.70;99.90
19829;DHT22;10075;50.924;4.396;2023-07-13T04:03:26;16.80;99.90
19829;DHT22;10075;50.924;4.396;2023-07-13T04:05:54;16.80;99.90
19829;DHT22;10075;50.924;4.396;2023-07-13T04:08:26;16.90;99.90
19829;DHT22;10075;50.924;4.396;2023-07-13T04:10:55;16.90;99.90
19829;DHT22;10075;50.924;4.396;2023-07-13T04:13:23;17.00;99.90
19829;DHT22;10075;50.924;4.396;2023-07-13T04:15:50;17.00;99.90
19829;DHT22;10075;50.924;4.396;2023-07-13T04:18:17;17.00;99.90
19829;DHT22;10075;50.924;4.396;2023-07-13T04:20:45;17.10;99.90
19829;DHT22;10075;50.924;4.396;2023-07-13T04:23:12;17.20;99.90
19829;DHT22;10075;50.924;4.396;2023-07-13T04:25:42;17.20;99.90
19829;DHT22;10075;50.924;4.396;2023-07-13T04:28:11;17.20;99.90
19829;DHT22;10075;50.924;4.396;2023-07-13T04:30:38;17.20;99.90
19829;DHT22;10075;50.924;4.396;2023-07-13T04:33:05;17.20;99.90
19829;DHT22;10075;50.924;4.396;2023-07-13T04:35:32;17.20;99.90
19829;DHT22;10075;50.924;4.396;2023-07-13T04:37:59;17.20;99.90
19829;DHT22;10075;50.924;4.396;2023-07-13T04:40:26;17.30;99.90
19829;DHT22;10075;50.924;4.396;2023-07-13T04:42:54;17.30;99.90
19829;DHT22;10075;50.924;4.396;2023-07-13T04:45:23;17.30;99.90
19829;DHT22;10075;50.924;4.396;2023-07-13T04:47:51;17.40;99.90
19829;DHT22;10075;50.924;4.396;2023-07-13T04:50:17;17.50;99.90
19829;DHT22;10075;50.924;4.396;2023-07-13T04:52:49;17.40;99.90
19829;DHT22;10075;50.924;4.396;2023-07-13T04:55:16;17.50;99.90
19829;DHT22;10075;50.924;4.396;2023-07-13T04:57:43;17.50;99.90
19829;DHT22;10075;50.924;4.396;2023-07-13T05:00:11;17.60;99.90
19829;DHT22;10075;50.924;4.396;2023-07-13T05:02:42;17.60;99.90
19829;DHT22;10075;50.924;4.396;2023-07-13T05:05:10;17.70;99.90
19829;DHT22;10075;50.924;4.396;2023-07-13T05:07:37;17.70;99.90
19829;DHT22;10075;50.924;4.396;2023-07-13T05:10:04;17.80;99.90
19829;DHT22;10075;50.924;4.396;2023-07-13T05:12:31;17.80;99.90
19829;DHT22;10075;50.924;4.396;2023-07-13T05:14:59;17.90;99.90
19829;DHT22;10075;50.924;4.396;2023-07-13T05:17:26;17.80;99.90
19829;DHT22;10075;50.924;4.396;2023-07-13T05:19:54;18.00;99.90
19829;DHT22;10075;50.924;4.396;2023-07-13T05:22:21;18.00;99.90
19829;DHT22;10075;50.924;4.396;2023-07-13T05:24:48;18.10;99.90
19829;DHT22;10075;50.924;4.396;2023-07-13T05:27:15;18.20;99.90
19829;DHT22;10075;50.924;4.396;2023-07-13T05:29:42;18.30;99.90
19829;DHT22;10075;50.924;4.396;2023-07-13T05:32:10;18.30;99.90
19829;DHT22;10075;50.924;4.396;2023-07-13T05:34:37;18.40;99.90
19829;DHT22;10075;50.924;4.396;2023-07-13T05:37:05;18.40;99.90
19829;DHT22;10075;50.924;4.396;2023-07-13T05:39:32;18.50;99.90
19829;DHT22;10075;50.924;4.396;2023-07-13T05:41:59;18.50;99.90
19829;DHT22;10075;50.924;4.396;2023-07-13T05:44:26;18.50;99.90
19829;DHT22;10075;50.924;4.396;2023-07-13T05:46:53;18.50;99.90
19829;DHT22;10075;50.924;4.396;2023-07-13T05:49:20;18.60;99.90
19829;DHT22;10075;50.924;4.396;2023-07-13T05:51:47;18.50;99.90
19829;DHT22;10075;50.924;4.396;2023-07-13T05:54:15;18.60;99.90
19829;DHT22;10075;50.924;4.396;2023-07-13T05:56:42;18.70;99.90
19829;DHT22;10075;50.924;4.396;2023-07-13T05:59:09;18.80;99.90
19829;DHT22;10075;50.924;4.396;2023-07-13T06:01:36;18.80;99.90
19829;DHT22;10075;50.924;4.396;2023-07-13T06:04:04;18.80;99.90
19829;DHT22;10075;50.924;4.396;2023-07-13T06:06:31;18.80;99.90
19829;DHT22;10075;50.924;4.396;2023-07-13T06:08:57;18.90;99.90
19829;DHT22;10075;50.924;4.396;2023-07-13T06:11:27;19.00;99.90
19829;DHT22;10075;50.924;4.396;2023-07-13T06:13:56;19.20;99.90
19829;DHT22;10075;50.924;4.396;2023-07-13T06:16:23;19.40;99.90
19829;DHT22;10075;50.924;4.396;2023-07-13T06:18:50;19.50;99.90
19829;DHT22;10075;50.924;4.396;2023-07-13T06:21:19;19.60;99.90
19829;DHT22;10075;50.924;4.396;2023-07-13T06:23:48;19.60;99.90
19829;DHT22;10075;50.924;4.396;2023-07-13T06:26:15;19.60;99.90
19829;DHT22;10075;50.924;4.396;2023-07-13T06:28:44;19.70;99.90
19829;DHT22;10075;50.924;4.396;2023-07-13T06:31:13;19.80;99.90
19829;DHT22;10075;50.924;4.396;2023-07-13T06:33:40;19.90;99.90
19829;DHT22;10075;50.924;4.396;2023-07-13T06:36:08;20.00;99.90
19829;DHT22;10075;50.924;4.396;2023-07-13T06:38:35;20.20;99.90
19829;DHT22;10075;50.924;4.396;2023-07-13T06:41:03;20.30;99.90
19829;DHT22;10075;50.924;4.396;2023-07-13T06:43:30;20.40;99.90
19829;DHT22;10075;50.924;4.396;2023-07-13T06:45:58;20.60;99.90
19829;DHT22;10075;50.924;4.396;2023-07-13T06:48:26;20.80;99.90
19829;DHT22;10075;50.924;4.396;2023-07-13T06:50:53;20.80;99.90
19829;DHT22;10075;50.924;4.396;2023-07-13T06:53:21;20.70;99.90
19829;DHT22;10075;50.924;4.396;2023-07-13T06:55:48;20.80;99.90
19829;DHT22;10075;50.924;4.396;2023-07-13T06:58:16;20.80;99.90
19829;DHT22;10075;50.924;4.396;2023-07-13T07:00:44;20.90;99.90
19829;DHT22;10075;50.924;4.396;2023-07-13T07:03:12;21.00;99.90
19829;DHT22;10075;50.924;4.396;2023-07-13T07:05:39;21.20;99.90
19829;DHT22;10075;50.924;4.396;2023-07-13T07:08:06;21.30;99.90
19829;DHT22;10075;50.924;4.396;2023-07-13T07:10:34;21.40;99.90
19829;DHT22;10075;50.924;4.396;2023-07-13T07:13:01;21.30;99.90
19829;DHT22;10075;50.924;4.396;2023-07-13T07:15:28;21.40;99.90
19829;DHT22;10075;50.924;4.396;2023-07-13T07:17:55;21.40;99.90
19829;DHT22;10075;50.924;4.396;2023-07-13T07:20:23;21.50;99.90
19829;DHT22;10075;50.924;4.396;2023-07-13T07:22:50;21.70;99.90
19829;DHT22;10075;50.924;4.396;2023-07-13T07:25:17;21.80;99.90
19829;DHT22;10075;50.924;4.396;2023-07-13T07:27:45;21.90;99.90
19829;DHT22;10075;50.924;4.396;2023-07-13T07:30:12;22.10;99.90
19829;DHT22;10075;50.924;4.396;2023-07-13T07:32:40;22.30;99.90
19829;DHT22;10075;50.924;4.396;2023-07-13T07:35:09;22.30;99.90
19829;DHT22;10075;50.924;4.396;2023-07-13T07:37:37;22.40;99.90
19829;DHT22;10075;50.924;4.396;2023-07-13T07:40:06;22.30;99.90
19829;DHT22;10075;50.924;4.396;2023-07-13T07:42:33;22.20;99.90
19829;DHT22;10075;50.924;4.396;2023-07-13T07:45:00;22.00;99.90
19829;DHT22;10075;50.924;4.396;2023-07-13T07:47:27;21.80;99.90
19829;DHT22;10075;50.924;4.396;2023-07-13T07:49:54;21.60;99.90
19829;DHT22;10075;50.924;4.396;2023-07-13T07:52:21;21.70;99.90
19829;DHT22;10075;50.924;4.396;2023-07-13T07:54:49;21.70;99.90
19829;DHT22;10075;50.924;4.396;2023-07-13T07:57:16;21.70;99.90
19829;DHT22;10075;50.924;4.396;2023-07-13T07:59:43;21.80;99.90
19829;DHT22;10075;50.924;4.396;2023-07-13T08:02:11;21.90;99.90
19829;DHT22;10075;50.924;4.396;2023-07-13T08:04:38;22.00;99.90
19829;DHT22;10075;50.924;4.396;2023-07-13T08:07:05;22.10;99.90
19829;DHT22;10075;50.924;4.396;2023-07-13T08:09:32;22.20;99.90
19829;DHT22;10075;50.924;4.396;2023-07-13T08:12:01;22.30;99.90
19829;DHT22;10075;50.924;4.396;2023-07-13T08:14:28;22.20;99.90
19829;DHT22;10075;50.924;4.396;2023-07-13T08:16:55;22.00;99.90
19829;DHT22;10075;50.924;4.396;2023-07-13T08:19:22;21.90;99.90
19829;DHT22;10075;50.924;4.396;2023-07-13T08:21:49;21.80;99.90
19829;DHT22;10075;50.924;4.396;2023-07-13T08:24:16;21.70;99.90
19829;DHT22;10075;50.924;4.396;2023-07-13T08:26:44;21.60;99.90
19829;DHT22;10075;50.924;4.396;2023-07-13T08:29:13;21.60;99.90
19829;DHT22;10075;50.924;4.396;2023-07-13T08:31:40;21.70;99.90
19829;DHT22;10075;50.924;4.396;2023-07-13T08:34:06;22.00;99.90
19829;DHT22;10075;50.924;4.396;2023-07-13T08:36:34;22.10;99.90
19829;DHT22;10075;50.924;4.396;2023-07-13T08:39:00;22.20;99.90
19829;DHT22;10075;50.924;4.396;2023-07-13T08:41:28;22.30;99.90
19829;DHT22;10075;50.924;4.396;2023-07-13T08:43:58;22.60;99.90
19829;DHT22;10075;50.924;4.396;2023-07-13T08:46:33;22.80;99.90
19829;DHT22;10075;50.924;4.396;2023-07-13T08:49:03;23.10;99.90
19829;DHT22;10075;50.924;4.396;2023-07-13T08:51:37;23.20;99.90
19829;DHT22;10075;50.924;4.396;2023-07-13T08:54:14;23.20;99.90
19829;DHT22;10075;50.924;4.396;2023-07-13T08:56:45;23.30;99.90
19829;DHT22;10075;50.924;4.396;2023-07-13T08:59:15;23.40;99.90
19829;DHT22;10075;50.924;4.396;2023-07-13T09:02:06;23.40;99.90
19829;DHT22;10075;50.924;4.396;2023-07-13T09:04:39;23.40;99.90
19829;DHT22;10075;50.924;4.396;2023-07-13T09:07:17;23.50;99.90
19829;DHT22;10075;50.924;4.396;2023-07-13T09:09:55;23.60;99.90
19829;DHT22;10075;50.924;4.396;2023-07-13T09:12:30;23.60;99.90
19829;DHT22;10075;50.924;4.396;2023-07-13T09:15:00;23.60;99.90
19829;DHT22;10075;50.924;4.396;2023-07-13T09:17:35;23.80;99.90
19829;DHT22;10075;50.924;4.396;2023-07-13T09:20:10;24.00;99.90
19829;DHT22;10075;50.924;4.396;2023-07-13T09:22:38;24.30;99.90
19829;DHT22;10075;50.924;4.396;2023-07-13T09:25:12;24.40;99.90
19829;DHT22;10075;50.924;4.396;2023-07-13T09:27:47;24.40;99.90
19829;DHT22;10075;50.924;4.396;2023-07-13T09:30:30;24.40;99.90
19829;DHT22;10075;50.924;4.396;2023-07-13T09:33:00;24.20;99.60
19829;DHT22;10075;50.924;4.396;2023-07-13T09:35:28;23.60;99.90
19829;DHT22;10075;50.924;4.396;2023-07-13T09:38:03;23.40;99.90
19829;DHT22;10075;50.924;4.396;2023-07-13T09:40:37;23.40;99.90
19829;DHT22;10075;50.924;4.396;2023-07-13T09:43:07;23.60;99.90
19829;DHT22;10075;50.924;4.396;2023-07-13T09:45:37;23.50;99.90
19829;DHT22;10075;50.924;4.396;2023-07-13T09:48:10;23.40;99.90
19829;DHT22;10075;50.924;4.396;2023-07-13T09:50:38;23.30;99.90
19829;DHT22;10075;50.924;4.396;2023-07-13T09:53:12;23.40;99.90
19829;DHT22;10075;50.924;4.396;2023-07-13T09:55:41;23.50;99.90
19829;DHT22;10075;50.924;4.396;2023-07-13T09:58:11;23.80;99.90
19829;DHT22;10075;50.924;4.396;2023-07-13T10:00:39;24.20;99.90
19829;DHT22;10075;50.924;4.396;2023-07-13T10:03:19;24.70;99.40
19829;DHT22;10075;50.924;4.396;2023-07-13T10:05:49;25.20;98.90
19829;DHT22;10075;50.924;4.396;2023-07-13T10:08:24;25.60;98.00
19829;DHT22;10075;50.924;4.396;2023-07-13T10:10:57;25.80;97.40
19829;DHT22;10075;50.924;4.396;2023-07-13T10:13:29;25.90;96.60
19829;DHT22;10075;50.924;4.396;2023-07-13T10:15:58;26.00;95.90
19829;DHT22;10075;50.924;4.396;2023-07-13T10:18:28;26.00;95.50
19829;DHT22;10075;50.924;4.396;2023-07-13T10:21:10;25.90;95.60
19829;DHT22;10075;50.924;4.396;2023-07-13T10:23:37;26.00;94.20
19829;DHT22;10075;50.924;4.396;2023-07-13T10:26:15;25.70;94.50
19829;DHT22;10075;50.924;4.396;2023-07-13T10:28:45;25.40;94.70
19829;DHT22;10075;50.924;4.396;2023-07-13T10:31:15;25.00;95.40
19829;DHT22;10075;50.924;4.396;2023-07-13T10:33:44;24.70;95.70
19829;DHT22;10075;50.924;4.396;2023-07-13T10:36:19;24.60;96.80
19829;DHT22;10075;50.924;4.396;2023-07-13T10:38:48;24.60;96.90
19829;DHT22;10075;50.924;4.396;2023-07-13T10:41:20;24.60;96.00
19829;DHT22;10075;50.924;4.396;2023-07-13T10:43:50;24.60;96.60
19829;DHT22;10075;50.924;4.396;2023-07-13T10:46:19;24.50;96.80
19829;DHT22;10075;50.924;4.396;2023-07-13T10:48:52;24.40;97.30
19829;DHT22;10075;50.924;4.396;2023-07-13T10:51:21;24.40;98.50
19829;DHT22;10075;50.924;4.396;2023-07-13T10:54:12;24.50;99.40
19829;DHT22;10075;50.924;4.396;2023-07-13T10:56:42;24.60;99.10
19829;DHT22;10075;50.924;4.396;2023-07-13T10:59:12;24.40;98.30
19829;DHT22;10075;50.924;4.396;2023-07-13T11:01:49;24.20;99.90
19829;DHT22;10075;50.924;4.396;2023-07-13T11:04:19;23.90;99.90
19829;DHT22;10075;50.924;4.396;2023-07-13T11:06:50;23.80;99.90
19829;DHT22;10075;50.924;4.396;2023-07-13T11:09:38;23.80;99.90
19829;DHT22;10075;50.924;4.396;2023-07-13T11:12:27;24.00;99.90
19829;DHT22;10075;50.924;4.396;2023-07-13T11:15:09;24.20;99.90
19829;DHT22;10075;50.924;4.396;2023-07-13T11:17:47;24.30;99.90
19829;DHT22;10075;50.924;4.396;2023-07-13T11:20:37;24.50;99.90
19829;DHT22;10075;50.924;4.396;2023-07-13T11:23:28;24.90;99.90
19829;DHT22;10075;50.924;4.396;2023-07-13T11:25:57;25.30;99.90
19829;DHT22;10075;50.924;4.396;2023-07-13T11:28:27;25.50;99.10
19829;DHT22;10075;50.924;4.396;2023-07-13T11:31:11;25.60;97.60
19829;DHT22;10075;50.924;4.396;2023-07-13T11:33:56;25.60;97.40
19829;DHT22;10075;50.924;4.396;2023-07-13T11:36:35;25.60;96.30
19829;DHT22;10075;50.924;4.396;2023-07-13T11:39:12;25.50;96.70
19829;DHT22;10075;50.924;4.396;2023-07-13T11:41:45;25.60;97.60
19829;DHT22;10075;50.924;4.396;2023-07-13T11:44:15;25.60;96.30
19829;DHT22;10075;50.924;4.396;2023-07-13T11:46:47;25.50;96.60
19829;DHT22;10075;50.924;4.396;2023-07-13T11:49:18;25.30;95.60
19829;DHT22;10075;50.924;4.396;2023-07-13T11:51:47;25.00;97.10
19829;DHT22;10075;50.924;4.396;2023-07-13T11:54:24;24.50;99.90
19829;DHT22;10075;50.924;4.396;2023-07-13T11:56:52;23.70;99.90
19829;DHT22;10075;50.924;4.396;2023-07-13T11:59:19;22.70;99.90
19829;DHT22;10075;50.924;4.396;2023-07-13T12:01:51;22.10;99.90
19829;DHT22;10075;50.924;4.396;2023-07-13T12:04:22;21.80;99.90
19829;DHT22;10075;50.924;4.396;2023-07-13T12:06:57;21.60;99.90
19829;DHT22;10075;50.924;4.396;2023-07-13T12:09:27;21.60;99.90
19829;DHT22;10075;50.924;4.396;2023-07-13T12:11:57;21.60;99.90
19829;DHT22;10075;50.924;4.396;2023-07-13T12:14:25;21.70;99.90
19829;DHT22;10075;50.924;4.396;2023-07-13T12:16:53;21.90;99.90
19829;DHT22;10075;50.924;4.396;2023-07-13T12:19:22;22.10;99.90
19829;DHT22;10075;50.924;4.396;2023-07-13T12:21:52;21.90;99.90
19829;DHT22;10075;50.924;4.396;2023-07-13T12:24:21;21.60;99.90
19829;DHT22;10075;50.924;4.396;2023-07-13T12:26:53;21.40;99.90
19829;DHT22;10075;50.924;4.396;2023-07-13T12:29:21;21.30;99.90
19829;DHT22;10075;50.924;4.396;2023-07-13T12:31:49;21.30;99.90
19829;DHT22;10075;50.924;4.396;2023-07-13T12:34:20;21.00;99.90
19829;DHT22;10075;50.924;4.396;2023-07-13T12:36:52;20.40;99.90
19829;DHT22;10075;50.924;4.396;2023-07-13T12:39:26;20.10;99.90
19829;DHT22;10075;50.924;4.396;2023-07-13T12:42:13;19.90;99.90
19829;DHT22;10075;50.924;4.396;2023-07-13T12:44:43;19.80;99.90
19829;DHT22;10075;50.924;4.396;2023-07-13T12:47:13;19.70;99.90
19829;DHT22;10075;50.924;4.396;2023-07-13T12:49:43;19.80;99.90
19829;DHT22;10075;50.924;4.396;2023-07-13T12:52:16;19.90;99.90
19829;DHT22;10075;50.924;4.396;2023-07-13T12:54:54;20.00;99.90
19829;DHT22;10075;50.924;4.396;2023-07-13T12:57:23;20.00;99.90
19829;DHT22;10075;50.924;4.396;2023-07-13T12:59:52;20.10;99.90
19829;DHT22;10075;50.924;4.396;2023-07-13T13:02:29;20.20;99.90
19829;DHT22;10075;50.924;4.396;2023-07-13T13:04:57;20.30;99.90
19829;DHT22;10075;50.924;4.396;2023-07-13T13:07:25;20.50;99.90
19829;DHT22;10075;50.924;4.396;2023-07-13T13:09:54;20.80;99.90
19829;DHT22;10075;50.924;4.396;2023-07-13T13:12:22;21.20;99.90
19829;DHT22;10075;50.924;4.396;2023-07-13T13:14:51;21.60;99.90
19829;DHT22;10075;50.924;4.396;2023-07-13T13:17:20;21.90;99.90
19829;DHT22;10075;50.924;4.396;2023-07-13T13:19:49;22.20;99.90
19829;DHT22;10075;50.924;4.396;2023-07-13T13:22:18;22.40;99.90
19829;DHT22;10075;50.924;4.396;2023-07-13T13:24:46;22.40;99.90
19829;DHT22;10075;50.924;4.396;2023-07-13T13:27:18;22.50;99.90
19829;DHT22;10075;50.924;4.396;2023-07-13T13:29:45;22.50;99.90
19829;DHT22;10075;50.924;4.396;2023-07-13T13:32:14;22.60;99.90
19829;DHT22;10075;50.924;4.396;2023-07-13T13:34:41;22.60;99.90
19829;DHT22;10075;50.924;4.396;2023-07-13T13:37:20;22.70;99.90
19829;DHT22;10075;50.924;4.396;2023-07-13T13:39:47;22.90;99.90
19829;DHT22;10075;50.924;4.396;2023-07-13T13:42:16;23.20;99.90
19829;DHT22;10075;50.924;4.396;2023-07-13T13:44:42;23.60;99.90
19829;DHT22;10075;50.924;4.396;2023-07-13T13:47:25;24.20;99.90
19829;DHT22;10075;50.924;4.396;2023-07-13T13:49:54;24.90;99.90
19829;DHT22;10075;50.924;4.396;2023-07-13T13:52:21;25.40;99.90
19829;DHT22;10075;50.924;4.396;2023-07-13T13:54:48;25.90;99.90
19829;DHT22;10075;50.924;4.396;2023-07-13T13:57:16;26.50;99.90
19829;DHT22;10075;50.924;4.396;2023-07-13T13:59:43;27.00;99.90
19829;DHT22;10075;50.924;4.396;2023-07-13T14:02:22;27.20;99.00
19829;DHT22;10075;50.924;4.396;2023-07-13T14:04:52;27.10;97.10
19829;DHT22;10075;50.924;4.396;2023-07-13T14:07:20;27.10;98.10
19829;DHT22;10075;50.924;4.396;2023-07-13T14:09:47;27.00;98.60
19829;DHT22;10075;50.924;4.396;2023-07-13T14:12:16;27.00;95.50
19829;DHT22;10075;50.924;4.396;2023-07-13T14:14:44;27.00;96.10
19829;DHT22;10075;50.924;4.396;2023-07-13T14:17:19;27.10;96.40
19829;DHT22;10075;50.924;4.396;2023-07-13T14:19:47;27.10;96.00
19829;DHT22;10075;50.924;4.396;2023-07-13T14:22:16;27.20;95.70
19829;DHT22;10075;50.924;4.396;2023-07-13T14:24:44;27.50;95.60
19829;DHT22;10075;50.924;4.396;2023-07-13T14:27:11;27.80;94.90
19829;DHT22;10075;50.924;4.396;2023-07-13T14:29:41;28.20;94.10
19829;DHT22;10075;50.924;4.396;2023-07-13T14:32:11;28.90;93.50
19829;DHT22;10075;50.924;4.396;2023-07-13T14:34:39;29.70;91.20
19829;DHT22;10075;50.924;4.396;2023-07-13T14:37:11;30.90;91.20
19829;DHT22;10075;50.924;4.396;2023-07-13T14:39:39;32.70;88.40
19829;DHT22;10075;50.924;4.396;2023-07-13T14:42:09;34.50;83.00
19829;DHT22;10075;50.924;4.396;2023-07-13T14:44:37;36.00;74.60
19829;DHT22;10075;50.924;4.396;2023-07-13T14:47:07;37.20;68.50
19829;DHT22;10075;50.924;4.396;2023-07-13T14:49:36;36.90;66.60
19829;DHT22;10075;50.924;4.396;2023-07-13T14:52:10;35.80;68.70
19829;DHT22;10075;50.924;4.396;2023-07-13T14:54:37;34.20;69.90
19829;DHT22;10075;50.924;4.396;2023-07-13T14:57:09;33.70;72.90
19829;DHT22;10075;50.924;4.396;2023-07-13T14:59:37;34.60;71.20
19829;DHT22;10075;50.924;4.396;2023-07-13T15:02:14;35.40;68.80
19829;DHT22;10075;50.924;4.396;2023-07-13T15:04:42;37.10;68.60
19829;DHT22;10075;50.924;4.396;2023-07-13T15:07:10;38.20;64.10
19829;DHT22;10075;50.924;4.396;2023-07-13T15:09:39;38.60;59.70
19829;DHT22;10075;50.924;4.396;2023-07-13T15:12:06;39.70;59.40
19829;DHT22;10075;50.924;4.396;2023-07-13T15:14:33;40.70;57.40
19829;DHT22;10075;50.924;4.396;2023-07-13T15:17:00;41.80;57.20
19829;DHT22;10075;50.924;4.396;2023-07-13T15:19:29;42.60;55.10
19829;DHT22;10075;50.924;4.396;2023-07-13T15:21:57;43.40;53.90
19829;DHT22;10075;50.924;4.396;2023-07-13T15:24:24;43.90;52.50
19829;DHT22;10075;50.924;4.396;2023-07-13T15:26:52;43.00;51.70
19829;DHT22;10075;50.924;4.396;2023-07-13T15:29:19;41.10;53.20
19829;DHT22;10075;50.924;4.396;2023-07-13T15:31:46;39.80;55.00
19829;DHT22;10075;50.924;4.396;2023-07-13T15:34:15;38.70;56.00
19829;DHT22;10075;50.924;4.396;2023-07-13T15:36:44;37.30;57.30
19829;DHT22;10075;50.924;4.396;2023-07-13T15:39:14;35.90;59.40
19829;DHT22;10075;50.924;4.396;2023-07-13T15:41:43;34.60;60.20
19829;DHT22;10075;50.924;4.396;2023-07-13T15:44:25;33.20;63.20
19829;DHT22;10075;50.924;4.396;2023-07-13T15:46:54;32.20;66.30